sensor_id;sensor_type;location;lat;lon;timestamp;temperature;humidity
22787;DHT22;63134;52.020;4.714;2023-07-31T00:00:58;18.70;99.90
22787;DHT22;63134;52.020;4.714;2023-07-31T00:03:43;18.70;99.90
22787;DHT22;63134;52.020;4.714;2023-07-31T00:06:29;18.70;99.90
22787;DHT22;63134;52.020;4.714;2023-07-31T00:09:15;18.70;99.90
22787;DHT22;63134;52.020;4.714;2023-07-31T00:12:00;18.70;99.90
22787;DHT22;63134;52.020;4.714;2023-07-31T00:14:46;18.70;99.90
22787;DHT22;63134;52.020;4.714;2023-07-31T00:17:33;18.70;99.90
22787;DHT22;63134;52.020;4.714;2023-07-31T00:20:20;18.70;99.90
22787;DHT22;63134;52.020;4.714;2023-07-31T00:23:06;18.70;99.90
22787;DHT22;63134;52.020;4.714;2023-07-31T00:25:51;18.60;99.90
22787;DHT22;63134;52.020;4.714;2023-07-31T00:28:37;18.60;99.90
22787;DHT22;63134;52.020;4.714;2023-07-31T00:31:22;18.60;99.90
22787;DHT22;63134;52.020;4.714;2023-07-31T00:34:08;18.60;99.90
22787;DHT22;63134;52.020;4.714;2023-07-31T00:36:53;18.60;99.90
22787;DHT22;63134;52.020;4.714;2023-07-31T00:39:39;18.50;99.90
22787;DHT22;63134;52.020;4.714;2023-07-31T00:42:24;18.50;99.90
22787;DHT22;63134;52.020;4.714;2023-07-31T00:45:10;18.40;99.90
22787;DHT22;63134;52.020;4.714;2023-07-31T00:47:56;18.40;99.90
22787;DHT22;63134;52.020;4.714;2023-07-31T00:50:42;18.40;99.90
22787;DHT22;63134;52.020;4.714;2023-07-31T00:53:27;18.40;99.90
22787;DHT22;63134;52.020;4.714;2023-07-31T00:56:13;18.40;99.90
22787;DHT22;63134;52.020;4.714;2023-07-31T00:58:59;18.50;99.90
22787;DHT22;63134;52.020;4.714;2023-07-31T01:01:45;18.40;99.90
22787;DHT22;63134;52.020;4.714;2023-07-31T01:04:30;18.40;99.90
22787;DHT22;63134;52.020;4.714;2023-07-31T01:07:27;18.40;99.90
22787;DHT22;63134;52.020;4.714;2023-07-31T01:10:23;18.40;99.90
22787;DHT22;63134;52.020;4.714;2023-07-31T01:13:10;18.40;99.90
22787;DHT22;63134;52.020;4.714;2023-07-31T01:15:58;18.40;99.90
22787;DHT22;63134;52.020;4.714;2023-07-31T01:18:45;18.40;99.90
22787;DHT22;63134;52.020;4.714;2023-07-31T01:27:57;18.20;99.90
22787;DHT22;63134;52.020;4.714;2023-07-31T01:30:47;18.20;99.90
22787;DHT22;63134;52.020;4.714;2023-07-31T01:33:34;18.10;99.90
22787;DHT22;63134;52.020;4.714;2023-07-31T01:36:20;18.10;99.90
22787;DHT22;63134;52.020;4.714;2023-07-31T01:39:06;18.10;99.90
22787;DHT22;63134;52.020;4.714;2023-07-31T01:41:56;18.10;99.90
22787;DHT22;63134;52.020;4.714;2023-07-31T01:44:41;18.20;99.90
22787;DHT22;63134;52.020;4.714;2023-07-31T01:47:26;18.20;99.90
22787;DHT22;63134;52.020;4.714;2023-07-31T01:50:12;18.20;99.90
22787;DHT22;63134;52.020;4.714;2023-07-31T01:52:57;18.20;99.90
22787;DHT22;63134;52.020;4.714;2023-07-31T01:55:43;18.20;99.90
22787;DHT22;63134;52.020;4.714;2023-07-31T01:58:28;18.30;99.90
22787;DHT22;63134;52.020;4.714;2023-07-31T02:01:13;18.30;99.90
22787;DHT22;63134;52.020;4.714;2023-07-31T02:04:00;18.30;99.90
22787;DHT22;63134;52.020;4.714;2023-07-31T02:06:45;18.30;99.90
22787;DHT22;63134;52.020;4.714;2023-07-31T02:09:31;18.30;99.90
22787;DHT22;63134;52.020;4.714;2023-07-31T02:12:17;18.30;99.90
22787;DHT22;63134;52.020;4.714;2023-07-31T02:15:02;18.30;99.90
22787;DHT22;63134;52.020;4.714;2023-07-31T02:17:48;18.30;99.90
22787;DHT22;63134;52.020;4.714;2023-07-31T02:20:34;18.30;99.90
22787;DHT22;63134;52.020;4.714;2023-07-31T02:23:20;18.40;99.90
22787;DHT22;63134;52.020;4.714;2023-07-31T02:26:06;18.40;99.90
22787;DHT22;63134;52.020;4.714;2023-07-31T02:28:52;18.40;99.90
22787;DHT22;63134;52.020;4.714;2023-07-31T02:31:37;18.40;99.90
22787;DHT22;63134;52.020;4.714;2023-07-31T02:34:23;18.40;99.90
22787;DHT22;63134;52.020;4.714;2023-07-31T02:37:08;18.40;99.90
22787;DHT22;63134;52.020;4.714;2023-07-31T02:39:55;18.40;99.90
22787;DHT22;63134;52.020;4.714;2023-07-31T02:42:41;18.50;99.90
22787;DHT22;63134;52.020;4.714;2023-07-31T02:45:26;18.50;99.90
22787;DHT22;63134;52.020;4.714;2023-07-31T02:48:12;18.40;99.90
22787;DHT22;63134;52.020;4.714;2023-07-31T02:50:57;18.40;99.90
22787;DHT22;63134;52.020;4.714;2023-07-31T02:53:42;18.40;99.90
22787;DHT22;63134;52.020;4.714;2023-07-31T02:56:28;18.40;99.90
22787;DHT22;63134;52.020;4.714;2023-07-31T02:59:14;18.40;99.90
22787;DHT22;63134;52.020;4.714;2023-07-31T03:01:59;18.30;99.90
22787;DHT22;63134;52.020;4.714;2023-07-31T03:04:45;18.30;99.90
22787;DHT22;63134;52.020;4.714;2023-07-31T03:07:30;18.30;99.90
22787;DHT22;63134;52.020;4.714;2023-07-31T03:10:16;18.30;99.90
22787;DHT22;63134;52.020;4.714;2023-07-31T03:13:01;18.30;99.90
22787;DHT22;63134;52.020;4.714;2023-07-31T03:15:50;18.30;99.90
22787;DHT22;63134;52.020;4.714;2023-07-31T03:18:38;18.30;99.90
22787;DHT22;63134;52.020;4.714;2023-07-31T03:21:25;18.40;99.90
22787;DHT22;63134;52.020;4.714;2023-07-31T03:24:10;18.30;99.90
22787;DHT22;63134;52.020;4.714;2023-07-31T03:26:57;18.40;99.90
22787;DHT22;63134;52.020;4.714;2023-07-31T03:29:44;18.40;99.90
22787;DHT22;63134;52.020;4.714;2023-07-31T03:32:30;18.50;99.90
22787;DHT22;63134;52.020;4.714;2023-07-31T03:35:15;18.50;99.90
22787;DHT22;63134;52.020;4.714;2023-07-31T03:38:01;18.50;99.90
22787;DHT22;63134;52.020;4.714;2023-07-31T03:40:47;18.50;99.90
22787;DHT22;63134;52.020;4.714;2023-07-31T03:43:32;18.50;99.90
22787;DHT22;63134;52.020;4.714;2023-07-31T03:46:19;18.50;99.90
22787;DHT22;63134;52.020;4.714;2023-07-31T03:49:06;18.60;99.90
22787;DHT22;63134;52.020;4.714;2023-07-31T03:51:54;18.50;99.90
22787;DHT22;63134;52.020;4.714;2023-07-31T03:54:39;18.50;99.90
22787;DHT22;63134;52.020;4.714;2023-07-31T03:57:25;18.50;99.90
22787;DHT22;63134;52.020;4.714;2023-07-31T04:00:11;18.40;99.90
22787;DHT22;63134;52.020;4.714;2023-07-31T04:02:56;18.30;99.90
22787;DHT22;63134;52.020;4.714;2023-07-31T04:05:42;18.20;99.90
22787;DHT22;63134;52.020;4.714;2023-07-31T04:08:27;18.20;99.90
22787;DHT22;63134;52.020;4.714;2023-07-31T04:11:13;18.10;99.90
22787;DHT22;63134;52.020;4.714;2023-07-31T04:13:59;18.00;99.90
22787;DHT22;63134;52.020;4.714;2023-07-31T04:16:47;18.00;99.90
22787;DHT22;63134;52.020;4.714;2023-07-31T04:19:33;18.00;99.90
22787;DHT22;63134;52.020;4.714;2023-07-31T04:22:18;18.00;99.90
22787;DHT22;63134;52.020;4.714;2023-07-31T04:25:04;17.90;99.90
22787;DHT22;63134;52.020;4.714;2023-07-31T04:27:49;17.90;99.90
22787;DHT22;63134;52.020;4.714;2023-07-31T04:30:35;17.90;99.90
22787;DHT22;63134;52.020;4.714;2023-07-31T04:33:22;17.90;99.90
22787;DHT22;63134;52.020;4.714;2023-07-31T04:36:07;17.80;99.90
22787;DHT22;63134;52.020;4.714;2023-07-31T04:38:52;17.90;99.90
22787;DHT22;63134;52.020;4.714;2023-07-31T04:41:38;17.80;99.90
22787;DHT22;63134;52.020;4.714;2023-07-31T04:44:24;17.80;99.90
22787;DHT22;63134;52.020;4.714;2023-07-31T04:47:09;17.80;99.90
22787;DHT22;63134;52.020;4.714;2023-07-31T04:49:55;17.80;99.90
22787;DHT22;63134;52.020;4.714;2023-07-31T04:52:40;17.80;99.90
22787;DHT22;63134;52.020;4.714;2023-07-31T04:55:26;17.70;99.90
22787;DHT22;63134;52.020;4.714;2023-07-31T04:58:11;17.80;99.90
22787;DHT22;63134;52.020;4.714;2023-07-31T05:00:57;17.80;99.90
22787;DHT22;63134;52.020;4.714;2023-07-31T05:03:42;17.80;99.90
22787;DHT22;63134;52.020;4.714;2023-07-31T05:06:28;17.80;99.90
22787;DHT22;63134;52.020;4.714;2023-07-31T05:09:13;17.70;99.90
22787;DHT22;63134;52.020;4.714;2023-07-31T05:11:59;17.80;99.90
22787;DHT22;63134;52.020;4.714;2023-07-31T05:14:44;17.80;99.90
22787;DHT22;63134;52.020;4.714;2023-07-31T05:17:30;17.70;99.90
22787;DHT22;63134;52.020;4.714;2023-07-31T05:20:15;17.80;99.90
22787;DHT22;63134;52.020;4.714;2023-07-31T05:23:03;17.80;99.90
22787;DHT22;63134;52.020;4.714;2023-07-31T05:25:49;17.80;99.90
22787;DHT22;63134;52.020;4.714;2023-07-31T05:28:35;17.80;99.90
22787;DHT22;63134;52.020;4.714;2023-07-31T05:31:21;17.80;99.90
22787;DHT22;63134;52.020;4.714;2023-07-31T05:34:07;17.80;99.90
22787;DHT22;63134;52.020;4.714;2023-07-31T05:36:53;17.80;99.90
22787;DHT22;63134;52.020;4.714;2023-07-31T05:39:38;17.90;99.90
22787;DHT22;63134;52.020;4.714;2023-07-31T05:42:25;17.90;99.90
22787;DHT22;63134;52.020;4.714;2023-07-31T05:45:10;18.00;99.90
22787;DHT22;63134;52.020;4.714;2023-07-31T05:47:56;18.00;99.90
22787;DHT22;63134;52.020;4.714;2023-07-31T05:50:43;18.00;99.90
22787;DHT22;63134;52.020;4.714;2023-07-31T05:53:29;18.00;99.90
22787;DHT22;63134;52.020;4.714;2023-07-31T05:56:14;18.00;99.90
22787;DHT22;63134;52.020;4.714;2023-07-31T05:58:59;18.10;99.90
22787;DHT22;63134;52.020;4.714;2023-07-31T06:01:48;18.10;99.90
22787;DHT22;63134;52.020;4.714;2023-07-31T06:04:34;18.20;99.90
22787;DHT22;63134;52.020;4.714;2023-07-31T06:07:19;18.20;99.90
22787;DHT22;63134;52.020;4.714;2023-07-31T06:10:05;18.20;99.90
22787;DHT22;63134;52.020;4.714;2023-07-31T06:12:51;18.30;99.90
22787;DHT22;63134;52.020;4.714;2023-07-31T06:15:36;18.30;99.90
22787;DHT22;63134;52.020;4.714;2023-07-31T06:18:22;18.30;99.90
22787;DHT22;63134;52.020;4.714;2023-07-31T06:21:08;18.30;99.90
22787;DHT22;63134;52.020;4.714;2023-07-31T06:23:54;18.30;99.90
22787;DHT22;63134;52.020;4.714;2023-07-31T06:26:40;18.30;99.90
22787;DHT22;63134;52.020;4.714;2023-07-31T06:29:26;18.40;99.90
22787;DHT22;63134;52.020;4.714;2023-07-31T06:32:12;18.60;99.90
22787;DHT22;63134;52.020;4.714;2023-07-31T06:34:58;18.60;99.90
22787;DHT22;63134;52.020;4.714;2023-07-31T06:37:43;18.60;99.90
22787;DHT22;63134;52.020;4.714;2023-07-31T06:40:30;18.60;99.90
22787;DHT22;63134;52.020;4.714;2023-07-31T06:43:15;18.60;99.90
22787;DHT22;63134;52.020;4.714;2023-07-31T06:46:05;18.60;99.90
22787;DHT22;63134;52.020;4.714;2023-07-31T06:48:52;18.70;99.90
22787;DHT22;63134;52.020;4.714;2023-07-31T06:51:38;18.60;99.90
22787;DHT22;63134;52.020;4.714;2023-07-31T06:54:23;18.70;99.90
22787;DHT22;63134;52.020;4.714;2023-07-31T06:57:09;18.60;99.90
22787;DHT22;63134;52.020;4.714;2023-07-31T06:59:54;18.70;99.90
22787;DHT22;63134;52.020;4.714;2023-07-31T07:02:40;18.70;99.90
22787;DHT22;63134;52.020;4.714;2023-07-31T07:05:26;18.60;99.90
22787;DHT22;63134;52.020;4.714;2023-07-31T07:08:12;18.70;99.90
22787;DHT22;63134;52.020;4.714;2023-07-31T07:10:57;18.70;99.90
22787;DHT22;63134;52.020;4.714;2023-07-31T07:13:43;18.80;99.90
22787;DHT22;63134;52.020;4.714;2023-07-31T07:16:34;19.00;99.90
22787;DHT22;63134;52.020;4.714;2023-07-31T07:19:19;19.10;99.90
22787;DHT22;63134;52.020;4.714;2023-07-31T07:22:05;19.10;99.90
22787;DHT22;63134;52.020;4.714;2023-07-31T07:24:51;19.10;99.90
22787;DHT22;63134;52.020;4.714;2023-07-31T07:27:36;19.10;99.90
22787;DHT22;63134;52.020;4.714;2023-07-31T07:30:22;19.00;99.90
22787;DHT22;63134;52.020;4.714;2023-07-31T07:33:09;19.00;99.90
22787;DHT22;63134;52.020;4.714;2023-07-31T07:35:55;19.10;99.90
22787;DHT22;63134;52.020;4.714;2023-07-31T07:38:40;19.10;99.90
22787;DHT22;63134;52.020;4.714;2023-07-31T07:41:26;19.10;99.90
22787;DHT22;63134;52.020;4.714;2023-07-31T07:44:12;19.20;99.90
22787;DHT22;63134;52.020;4.714;2023-07-31T07:46:58;19.20;99.90
22787;DHT22;63134;52.020;4.714;2023-07-31T07:49:43;19.10;99.90
22787;DHT22;63134;52.020;4.714;2023-07-31T07:52:37;19.10;99.90
22787;DHT22;63134;52.020;4.714;2023-07-31T07:55:23;19.20;99.90
22787;DHT22;63134;52.020;4.714;2023-07-31T07:58:08;19.30;99.90
22787;DHT22;63134;52.020;4.714;2023-07-31T08:00:54;19.30;99.90
22787;DHT22;63134;52.020;4.714;2023-07-31T08:03:39;19.40;99.90
22787;DHT22;63134;52.020;4.714;2023-07-31T08:06:25;19.50;99.90
22787;DHT22;63134;52.020;4.714;2023-07-31T08:09:11;19.50;99.90
22787;DHT22;63134;52.020;4.714;2023-07-31T08:11:56;19.50;99.90
22787;DHT22;63134;52.020;4.714;2023-07-31T08:14:46;19.50;99.90
22787;DHT22;63134;52.020;4.714;2023-07-31T08:17:32;19.40;99.90
22787;DHT22;63134;52.020;4.714;2023-07-31T08:20:17;19.50;99.90
22787;DHT22;63134;52.020;4.714;2023-07-31T08:23:04;19.40;99.90
22787;DHT22;63134;52.020;4.714;2023-07-31T08:25:49;19.40;99.90
22787;DHT22;63134;52.020;4.714;2023-07-31T08:28:36;19.40;99.90
22787;DHT22;63134;52.020;4.714;2023-07-31T08:31:22;19.50;99.90
22787;DHT22;63134;52.020;4.714;2023-07-31T08:34:08;19.50;99.90
22787;DHT22;63134;52.020;4.714;2023-07-31T08:36:53;19.50;99.90
22787;DHT22;63134;52.020;4.714;2023-07-31T08:39:39;19.50;99.90
22787;DHT22;63134;52.020;4.714;2023-07-31T08:42:25;19.60;99.90
22787;DHT22;63134;52.020;4.714;2023-07-31T08:45:14;19.60;99.90
22787;DHT22;63134;52.020;4.714;2023-07-31T08:48:00;19.70;99.90
22787;DHT22;63134;52.020;4.714;2023-07-31T08:50:46;19.80;99.90
22787;DHT22;63134;52.020;4.714;2023-07-31T08:53:32;19.80;99.90
22787;DHT22;63134;52.020;4.714;2023-07-31T08:56:18;19.80;99.90
22787;DHT22;63134;52.020;4.714;2023-07-31T08:59:04;19.80;99.90
22787;DHT22;63134;52.020;4.714;2023-07-31T09:01:53;19.80;99.90
22787;DHT22;63134;52.020;4.714;2023-07-31T09:04:39;19.80;99.90
22787;DHT22;63134;52.020;4.714;2023-07-31T09:07:25;19.90;99.90
22787;DHT22;63134;52.020;4.714;2023-07-31T09:10:10;19.90;99.90
22787;DHT22;63134;52.020;4.714;2023-07-31T09:12:56;20.00;99.90
22787;DHT22;63134;52.020;4.714;2023-07-31T09:15:44;19.90;99.90
22787;DHT22;63134;52.020;4.714;2023-07-31T09:18:30;19.90;99.90
22787;DHT22;63134;52.020;4.714;2023-07-31T09:21:15;19.80;99.90
22787;DHT22;63134;52.020;4.714;2023-07-31T09:24:00;19.90;99.90
22787;DHT22;63134;52.020;4.714;2023-07-31T09:26:46;19.90;99.90
22787;DHT22;63134;52.020;4.714;2023-07-31T09:29:31;20.00;99.90
22787;DHT22;63134;52.020;4.714;2023-07-31T09:32:17;20.10;99.90
22787;DHT22;63134;52.020;4.714;2023-07-31T09:38:05;20.00;99.90
22787;DHT22;63134;52.020;4.714;2023-07-31T09:40:50;20.10;99.90
22787;DHT22;63134;52.020;4.714;2023-07-31T09:43:37;20.10;99.90
22787;DHT22;63134;52.020;4.714;2023-07-31T09:46:26;20.10;99.90
22787;DHT22;63134;52.020;4.714;2023-07-31T09:49:13;20.10;99.90
22787;DHT22;63134;52.020;4.714;2023-07-31T09:52:03;20.10;99.90
22787;DHT22;63134;52.020;4.714;2023-07-31T09:54:57;20.20;99.90
22787;DHT22;63134;52.020;4.714;2023-07-31T09:57:45;20.30;99.90
22787;DHT22;63134;52.020;4.714;2023-07-31T10:00:31;20.40;99.90
22787;DHT22;63134;52.020;4.714;2023-07-31T10:03:17;20.30;99.90
22787;DHT22;63134;52.020;4.714;2023-07-31T10:06:04;20.40;99.90
22787;DHT22;63134;52.020;4.714;2023-07-31T10:08:51;20.40;99.90
22787;DHT22;63134;52.020;4.714;2023-07-31T10:11:42;20.30;99.90
22787;DHT22;63134;52.020;4.714;2023-07-31T10:14:31;20.30;99.90
22787;DHT22;63134;52.020;4.714;2023-07-31T10:17:18;20.50;99.90
22787;DHT22;63134;52.020;4.714;2023-07-31T10:20:06;20.70;99.90
22787;DHT22;63134;52.020;4.714;2023-07-31T10:22:54;20.80;99.90
22787;DHT22;63134;52.020;4.714;2023-07-31T10:25:40;20.80;99.90
22787;DHT22;63134;52.020;4.714;2023-07-31T10:28:27;20.80;99.90
22787;DHT22;63134;52.020;4.714;2023-07-31T10:31:14;20.70;99.90
22787;DHT22;63134;52.020;4.714;2023-07-31T10:34:00;20.70;99.90
22787;DHT22;63134;52.020;4.714;2023-07-31T10:36:48;20.70;99.90
22787;DHT22;63134;52.020;4.714;2023-07-31T10:39:36;20.80;99.90
22787;DHT22;63134;52.020;4.714;2023-07-31T10:42:33;20.80;99.90
22787;DHT22;63134;52.020;4.714;2023-07-31T10:45:42;20.70;99.90
22787;DHT22;63134;52.020;4.714;2023-07-31T10:48:33;20.70;99.90
22787;DHT22;63134;52.020;4.714;2023-07-31T10:51:21;20.80;99.90
22787;DHT22;63134;52.020;4.714;2023-07-31T10:54:16;20.80;99.90
22787;DHT22;63134;52.020;4.714;2023-07-31T10:57:21;20.70;99.90
22787;DHT22;63134;52.020;4.714;2023-07-31T11:00:24;20.60;99.90
22787;DHT22;63134;52.020;4.714;2023-07-31T11:03:12;20.60;99.90
22787;DHT22;63134;52.020;4.714;2023-07-31T11:08:49;20.50;99.90
22787;DHT22;63134;52.020;4.714;2023-07-31T11:11:35;20.50;99.90
22787;DHT22;63134;52.020;4.714;2023-07-31T11:14:23;20.40;99.90
22787;DHT22;63134;52.020;4.714;2023-07-31T11:17:08;20.40;99.90
22787;DHT22;63134;52.020;4.714;2023-07-31T11:19:54;20.40;99.90
22787;DHT22;63134;52.020;4.714;2023-07-31T11:22:39;20.70;99.90
22787;DHT22;63134;52.020;4.714;2023-07-31T11:25:25;20.90;99.90
22787;DHT22;63134;52.020;4.714;2023-07-31T11:28:12;21.00;99.90
22787;DHT22;63134;52.020;4.714;2023-07-31T11:30:58;21.00;99.90
22787;DHT22;63134;52.020;4.714;2023-07-31T11:33:43;20.90;99.90
22787;DHT22;63134;52.020;4.714;2023-07-31T11:36:29;20.90;99.90
22787;DHT22;63134;52.020;4.714;2023-07-31T11:39:14;20.90;99.90
22787;DHT22;63134;52.020;4.714;2023-07-31T11:42:01;21.10;99.90
22787;DHT22;63134;52.020;4.714;2023-07-31T11:44:46;21.30;99.90
22787;DHT22;63134;52.020;4.714;2023-07-31T11:47:34;21.20;99.90
22787;DHT22;63134;52.020;4.714;2023-07-31T11:50:23;21.00;99.90
22787;DHT22;63134;52.020;4.714;2023-07-31T11:53:12;21.00;99.90
22787;DHT22;63134;52.020;4.714;2023-07-31T11:55:59;21.00;99.90
22787;DHT22;63134;52.020;4.714;2023-07-31T11:58:47;21.00;99.90
22787;DHT22;63134;52.020;4.714;2023-07-31T12:01:33;20.90;99.90
22787;DHT22;63134;52.020;4.714;2023-07-31T12:04:19;20.80;99.90
22787;DHT22;63134;52.020;4.714;2023-07-31T12:07:06;20.90;99.90
22787;DHT22;63134;52.020;4.714;2023-07-31T12:09:53;21.00;99.90
22787;DHT22;63134;52.020;4.714;2023-07-31T12:12:38;21.20;99.90
22787;DHT22;63134;52.020;4.714;2023-07-31T12:15:41;21.40;99.90
22787;DHT22;63134;52.020;4.714;2023-07-31T12:18:29;21.60;99.90
22787;DHT22;63134;52.020;4.714;2023-07-31T12:21:14;21.90;99.90
22787;DHT22;63134;52.020;4.714;2023-07-31T12:24:00;21.80;99.90
22787;DHT22;63134;52.020;4.714;2023-07-31T12:26:48;21.90;99.90
22787;DHT22;63134;52.020;4.714;2023-07-31T12:29:34;22.20;99.90
22787;DHT22;63134;52.020;4.714;2023-07-31T12:32:25;22.20;99.90
22787;DHT22;63134;52.020;4.714;2023-07-31T12:35:14;22.30;99.20
22787;DHT22;63134;52.020;4.714;2023-07-31T12:38:01;22.10;96.70
22787;DHT22;63134;52.020;4.714;2023-07-31T12:40:47;21.80;96.70
22787;DHT22;63134;52.020;4.714;2023-07-31T12:43:34;21.70;98.00
22787;DHT22;63134;52.020;4.714;2023-07-31T12:46:20;21.60;99.10
22787;DHT22;63134;52.020;4.714;2023-07-31T12:49:06;21.70;99.80
22787;DHT22;63134;52.020;4.714;2023-07-31T12:51:51;21.80;97.50
22787;DHT22;63134;52.020;4.714;2023-07-31T12:54:39;22.00;98.70
22787;DHT22;63134;52.020;4.714;2023-07-31T12:57:24;22.20;98.10
22787;DHT22;63134;52.020;4.714;2023-07-31T13:00:10;22.40;98.40
22787;DHT22;63134;52.020;4.714;2023-07-31T13:02:56;22.70;97.70
22787;DHT22;63134;52.020;4.714;2023-07-31T13:05:42;22.80;96.60
22787;DHT22;63134;52.020;4.714;2023-07-31T13:08:27;22.70;96.10
22787;DHT22;63134;52.020;4.714;2023-07-31T13:11:13;22.50;95.80
22787;DHT22;63134;52.020;4.714;2023-07-31T13:14:01;22.20;95.00
22787;DHT22;63134;52.020;4.714;2023-07-31T13:16:47;21.90;96.40
22787;DHT22;63134;52.020;4.714;2023-07-31T13:19:33;21.70;97.00
22787;DHT22;63134;52.020;4.714;2023-07-31T13:22:18;21.60;97.50
22787;DHT22;63134;52.020;4.714;2023-07-31T13:25:04;21.70;98.10
22787;DHT22;63134;52.020;4.714;2023-07-31T13:27:50;22.00;98.40
22787;DHT22;63134;52.020;4.714;2023-07-31T13:30:35;22.20;97.30
22787;DHT22;63134;52.020;4.714;2023-07-31T13:33:21;22.40;97.40
22787;DHT22;63134;52.020;4.714;2023-07-31T13:36:22;22.20;95.90
22787;DHT22;63134;52.020;4.714;2023-07-31T13:39:07;21.90;97.00
22787;DHT22;63134;52.020;4.714;2023-07-31T13:41:53;21.70;97.30
22787;DHT22;63134;52.020;4.714;2023-07-31T13:44:39;21.50;97.80
22787;DHT22;63134;52.020;4.714;2023-07-31T13:47:24;21.30;98.00
22787;DHT22;63134;52.020;4.714;2023-07-31T13:50:10;21.20;98.90
22787;DHT22;63134;52.020;4.714;2023-07-31T13:52:55;21.10;99.60
22787;DHT22;63134;52.020;4.714;2023-07-31T13:55:41;21.10;99.90
22787;DHT22;63134;52.020;4.714;2023-07-31T13:58:30;21.30;99.90
22787;DHT22;63134;52.020;4.714;2023-07-31T14:01:15;21.40;99.50
22787;DHT22;63134;52.020;4.714;2023-07-31T14:04:01;21.30;99.60
22787;DHT22;63134;52.020;4.714;2023-07-31T14:06:49;21.40;99.90
22787;DHT22;63134;52.020;4.714;2023-07-31T14:09:38;21.30;99.90
22787;DHT22;63134;52.020;4.714;2023-07-31T14:12:24;21.20;99.90
22787;DHT22;63134;52.020;4.714;2023-07-31T14:15:16;21.20;99.90
22787;DHT22;63134;52.020;4.714;2023-07-31T14:18:02;21.20;99.90
22787;DHT22;63134;52.020;4.714;2023-07-31T14:20:47;21.10;99.90
22787;DHT22;63134;52.020;4.714;2023-07-31T14:23:34;21.00;99.90
22787;DHT22;63134;52.020;4.714;2023-07-31T14:26:19;20.90;99.90
22787;DHT22;63134;52.020;4.714;2023-07-31T14:29:05;20.80;99.90
22787;DHT22;63134;52.020;4.714;2023-07-31T14:31:50;20.70;99.90
22787;DHT22;63134;52.020;4.714;2023-07-31T14:34:36;20.70;99.90
22787;DHT22;63134;52.020;4.714;2023-07-31T14:37:21;20.60;99.90
22787;DHT22;63134;52.020;4.714;2023-07-31T14:40:08;20.60;99.90
22787;DHT22;63134;52.020;4.714;2023-07-31T14:42:54;20.50;99.90
22787;DHT22;63134;52.020;4.714;2023-07-31T14:45:40;20.40;99.90
22787;DHT22;63134;52.020;4.714;2023-07-31T14:48:26;20.40;99.90
22787;DHT22;63134;52.020;4.714;2023-07-31T14:51:12;20.40;99.90
22787;DHT22;63134;52.020;4.714;2023-07-31T14:53:59;20.40;99.90
22787;DHT22;63134;52.020;4.714;2023-07-31T14:56:45;20.40;99.90
22787;DHT22;63134;52.020;4.714;2023-07-31T14:59:31;20.40;99.90
22787;DHT22;63134;52.020;4.714;2023-07-31T15:02:16;20.40;99.90
22787;DHT22;63134;52.020;4.714;2023-07-31T15:05:02;20.30;99.90
22787;DHT22;63134;52.020;4.714;2023-07-31T15:07:47;20.30;99.90
22787;DHT22;63134;52.020;4.714;2023-07-31T15:10:37;20.30;99.90
22787;DHT22;63134;52.020;4.714;2023-07-31T15:13:23;20.20;99.90
22787;DHT22;63134;52.020;4.714;2023-07-31T15:16:09;20.20;99.90
22787;DHT22;63134;52.020;4.714;2023-07-31T15:18:55;20.10;99.90
22787;DHT22;63134;52.020;4.714;2023-07-31T15:21:40;20.20;99.90
22787;DHT22;63134;52.020;4.714;2023-07-31T15:24:26;20.20;99.90
22787;DHT22;63134;52.020;4.714;2023-07-31T15:27:11;20.30;99.90
22787;DHT22;63134;52.020;4.714;2023-07-31T15:29:56;20.20;99.90
22787;DHT22;63134;52.020;4.714;2023-07-31T15:32:42;20.20;99.90
22787;DHT22;63134;52.020;4.714;2023-07-31T15:35:30;20.10;99.90
22787;DHT22;63134;52.020;4.714;2023-07-31T15:38:16;20.10;99.90
22787;DHT22;63134;52.020;4.714;2023-07-31T15:41:02;20.10;99.90
22787;DHT22;63134;52.020;4.714;2023-07-31T15:43:47;20.10;99.90
22787;DHT22;63134;52.020;4.714;2023-07-31T15:46:33;20.10;99.90
22787;DHT22;63134;52.020;4.714;2023-07-31T15:49:19;20.10;99.90
22787;DHT22;63134;52.020;4.714;2023-07-31T15:52:04;20.10;99.90
22787;DHT22;63134;52.020;4.714;2023-07-31T15:54:50;20.00;99.90
22787;DHT22;63134;52.020;4.714;2023-07-31T15:57:36;20.10;99.90
22787;DHT22;63134;52.020;4.714;2023-07-31T16:00:21;20.00;99.90
22787;DHT22;63134;52.020;4.714;2023-07-31T16:03:07;20.00;99.90
22787;DHT22;63134;52.020;4.714;2023-07-31T16:05:52;20.00;99.90
22787;DHT22;63134;52.020;4.714;2023-07-31T16:08:38;20.00;99.90
22787;DHT22;63134;52.020;4.714;2023-07-31T16:11:27;20.00;99.90
22787;DHT22;63134;52.020;4.714;2023-07-31T16:14:12;20.00;99.90
22787;DHT22;63134;52.020;4.714;2023-07-31T16:16:58;20.00;99.90
22787;DHT22;63134;52.020;4.714;2023-07-31T16:19:43;20.00;99.90
22787;DHT22;63134;52.020;4.714;2023-07-31T16:22:29;20.20;99.90
22787;DHT22;63134;52.020;4.714;2023-07-31T16:25:14;20.20;99.90
22787;DHT22;63134;52.020;4.714;2023-07-31T16:28:00;20.20;99.90
22787;DHT22;63134;52.020;4.714;2023-07-31T16:30:45;20.20;99.90
22787;DHT22;63134;52.020;4.714;2023-07-31T16:33:32;20.20;99.90
22787;DHT22;63134;52.020;4.714;2023-07-31T16:36:18;20.20;99.90
22787;DHT22;63134;52.020;4.714;2023-07-31T16:39:07;20.20;99.90
22787;DHT22;63134;52.020;4.714;2023-07-31T16:41:52;20.20;99.90
22787;DHT22;63134;52.020;4.714;2023-07-31T16:44:38;20.20;99.90
22787;DHT22;63134;52.020;4.714;2023-07-31T16:47:23;20.30;99.90
22787;DHT22;63134;52.020;4.714;2023-07-31T16:50:11;20.40;99.90
22787;DHT22;63134;52.020;4.714;2023-07-31T16:52:56;20.40;99.90
22787;DHT22;63134;52.020;4.714;2023-07-31T16:55:42;20.50;99.90
22787;DHT22;63134;52.020;4.714;2023-07-31T16:58:27;20.50;99.90
22787;DHT22;63134;52.020;4.714;2023-07-31T17:01:13;20.50;99.90
22787;DHT22;63134;52.020;4.714;2023-07-31T17:03:59;20.50;99.90
22787;DHT22;63134;52.020;4.714;2023-07-31T17:06:45;20.50;99.90
22787;DHT22;63134;52.020;4.714;2023-07-31T17:09:30;20.50;99.90
22787;DHT22;63134;52.020;4.714;2023-07-31T17:12:17;20.40;99.90
22787;DHT22;63134;52.020;4.714;2023-07-31T17:15:03;20.30;99.90
22787;DHT22;63134;52.020;4.714;2023-07-31T17:17:53;20.30;99.90
22787;DHT22;63134;52.020;4.714;2023-07-31T17:20:41;20.20;99.90
22787;DHT22;63134;52.020;4.714;2023-07-31T17:23:27;20.20;99.90
22787;DHT22;63134;52.020;4.714;2023-07-31T17:26:12;20.20;99.90
22787;DHT22;63134;52.020;4.714;2023-07-31T17:28:58;20.20;99.90
22787;DHT22;63134;52.020;4.714;2023-07-31T17:31:45;20.10;99.90
22787;DHT22;63134;52.020;4.714;2023-07-31T17:34:32;20.10;99.90
22787;DHT22;63134;52.020;4.714;2023-07-31T17:37:17;20.10;99.90
22787;DHT22;63134;52.020;4.714;2023-07-31T17:40:04;20.10;99.90
22787;DHT22;63134;52.020;4.714;2023-07-31T17:42:49;20.10;99.90